Time;durP1;ratioP1;P1;durP2;ratioP2;P2;SDS_P1;SDS_P2;PMS_P1;PMS_P2;Temp;Humidity;BMP_temperature;BMP_pressure;BME280_temperature;BME280_humidity;BME280_pressure;Samples;Min_cycle;Max_cycle;Signal;HPM_P1;HPM_P2
2021/12/14 00:01:35;;;;;;;21.97;18.83;;;9.90;99.90;;;;;;5078257;28;20618;-81
2021/12/14 00:04:06;;;;;;;24.27;19.57;;;9.90;99.90;;;;;;5077782;28;20935;-79
2021/12/14 00:06:36;;;;;;;23.07;18.73;;;9.90;99.90;;;;;;5061810;28;20632;-81
2021/12/14 00:09:06;;;;;;;19.57;17.57;;;9.90;99.90;;;;;;5079417;28;20755;-79
2021/12/14 00:16:48;;;;;;;22.70;19.20;;;9.90;99.90;;;;;;5076545;28;20739;-77
2021/12/14 00:19:15;;;;;;;20.33;17.17;;;9.90;99.90;;;;;;5075489;28;20644;-81
2021/12/14 00:21:49;;;;;;;21.10;17.80;;;9.90;99.90;;;;;;5075435;28;20606;-78
2021/12/14 00:24:15;;;;;;;21.37;18.30;;;9.90;99.90;;;;;;5075673;28;20581;-80
2021/12/14 00:27:05;;;;;;;23.70;18.73;;;9.80;99.90;;;;;;5074237;28;20646;-80
2021/12/14 00:29:43;;;;;;;21.70;19.20;;;9.90;99.90;;;;;;5059714;28;20238;-79
2021/12/14 00:32:19;;;;;;;20.50;17.57;;;9.90;99.90;;;;;;5057001;28;20706;-81
2021/12/14 00:34:49;;;;;;;21.33;17.80;;;9.90;99.90;;;;;;5078313;28;20621;-80
2021/12/14 00:37:25;;;;;;;20.03;17.60;;;9.90;99.90;;;;;;5077417;28;20686;-80
2021/12/14 00:39:55;;;;;;;24.50;19.20;;;10.20;99.90;;;;;;5076720;28;20814;-77
2021/12/14 00:42:21;;;;;;;22.13;17.20;;;9.90;99.90;;;;;;5057830;28;20717;-81
2021/12/14 00:44:50;;;;;;;21.90;18.13;;;9.90;99.90;;;;;;5060568;28;21223;-79
2021/12/14 00:47:16;;;;;;;24.77;18.60;;;9.80;99.90;;;;;;5056781;28;20724;-80
2021/12/14 00:49:43;;;;;;;19.67;17.23;;;9.90;99.90;;;;;;5057393;28;20696;-82
2021/12/14 00:52:13;;;;;;;20.83;17.10;;;9.90;99.90;;;;;;5057002;28;20631;-79
2021/12/14 00:54:39;;;;;;;19.40;16.50;;;9.90;99.90;;;;;;5060484;28;20719;-79
2021/12/14 00:57:07;;;;;;;21.57;18.07;;;9.90;99.90;;;;;;5077663;28;20634;-76
2021/12/14 00:59:36;;;;;;;20.00;16.93;;;9.90;99.90;;;;;;5057520;28;20749;-79
2021/12/14 01:02:12;;;;;;;24.23;17.33;;;9.90;99.90;;;;;;5075505;28;20625;-79
2021/12/14 01:04:49;;;;;;;21.33;17.23;;;9.90;99.90;;;;;;5058062;28;21347;-81
2021/12/14 01:07:17;;;;;;;19.73;17.07;;;10.00;99.90;;;;;;5053353;28;20636;-80
2021/12/14 01:09:48;;;;;;;19.07;17.07;;;9.90;99.90;;;;;;5075612;28;20629;-81
2021/12/14 01:12:29;;;;;;;20.13;17.90;;;9.90;99.90;;;;;;5077757;28;20624;-84
2021/12/14 01:18:00;;;;;;;18.80;15.97;;;9.90;99.90;;;;;;5078329;28;20705;-79
2021/12/14 01:20:35;;;;;;;21.13;17.10;;;9.90;99.90;;;;;;5079277;28;20649;-78
2021/12/14 01:23:02;;;;;;;21.40;17.13;;;9.90;99.90;;;;;;5077511;28;20601;-79
2021/12/14 01:25:34;;;;;;;20.77;17.33;;;9.90;99.90;;;;;;5067240;28;20700;-80
2021/12/14 01:28:04;;;;;;;18.97;16.60;;;9.90;99.90;;;;;;5077937;28;20649;-78
2021/12/14 01:31:31;;;;;;;19.57;16.40;;;10.00;99.90;;;;;;5076544;28;20659;-78
2021/12/14 01:33:49;;;;;;;21.20;17.50;;;9.90;99.90;;;;;;5077931;28;20602;-79
2021/12/14 01:36:54;;;;;;;19.67;15.30;;;10.10;99.90;;;;;;5076147;28;20793;-81
2021/12/14 01:41:49;;;;;;;18.60;16.47;;;9.90;99.90;;;;;;5070392;28;20596;-80
2021/12/14 01:44:15;;;;;;;21.20;16.53;;;9.90;99.90;;;;;;5074279;28;20653;-76
2021/12/14 01:46:56;;;;;;;20.93;17.33;;;9.90;99.90;;;;;;5072806;28;20641;-78
2021/12/14 01:49:25;;;;;;;22.20;17.10;;;9.90;99.90;;;;;;5073122;28;20957;-81
2021/12/14 01:51:55;;;;;;;20.60;17.53;;;9.90;99.90;;;;;;5070657;28;20783;-79
2021/12/14 01:54:24;;;;;;;21.33;17.30;;;9.80;99.90;;;;;;5065645;28;20677;-79
2021/12/14 01:56:51;;;;;;;20.67;16.87;;;9.80;99.90;;;;;;5065657;28;20649;-83
2021/12/14 01:59:28;;;;;;;21.03;16.30;;;9.80;99.90;;;;;;5065377;28;20724;-81
2021/12/14 02:02:07;;;;;;;20.30;16.77;;;9.80;99.90;;;;;;5065958;28;20637;-82
2021/12/14 02:04:33;;;;;;;20.93;16.17;;;9.70;99.90;;;;;;5048797;28;20659;-78
2021/12/14 02:07:05;;;;;;;22.80;18.67;;;9.80;99.90;;;;;;5069451;28;20626;-81
2021/12/14 02:09:33;;;;;;;19.47;17.13;;;9.50;99.90;;;;;;5067394;28;20717;-77
2021/12/14 02:12:15;;;;;;;19.30;16.33;;;9.80;99.90;;;;;;5068662;28;20622;-79
2021/12/14 02:14:44;;;;;;;22.93;16.70;;;9.80;99.90;;;;;;5072713;28;20973;-81
2021/12/14 02:17:16;;;;;;;20.03;16.40;;;9.90;99.90;;;;;;5071760;28;20633;-77
2021/12/14 02:19:50;;;;;;;19.83;15.97;;;9.90;99.90;;;;;;5053546;28;20661;-81
2021/12/14 02:22:18;;;;;;;20.77;16.50;;;9.80;99.90;;;;;;5053579;28;20633;-82
2021/12/14 02:24:48;;;;;;;21.00;16.80;;;9.90;99.90;;;;;;5054017;28;20609;-78
2021/12/14 02:27:14;;;;;;;20.30;16.17;;;9.80;99.90;;;;;;5070961;28;21192;-78
2021/12/14 02:29:45;;;;;;;23.90;16.97;;;9.80;99.90;;;;;;5069874;28;20732;-77
2021/12/14 02:32:25;;;;;;;20.33;16.87;;;9.80;99.90;;;;;;5072217;28;20187;-77
2021/12/14 02:34:55;;;;;;;19.20;16.20;;;9.80;99.90;;;;;;5056141;28;20727;-81
2021/12/14 02:37:41;;;;;;;19.30;16.83;;;9.90;99.90;;;;;;5067309;28;20695;-78
2021/12/14 02:40:53;;;;;;;20.77;16.10;;;9.80;99.90;;;;;;5057120;28;21238;-80
2021/12/14 02:43:45;;;;;;;22.73;16.17;;;9.80;99.90;;;;;;5061847;28;21384;-82
2021/12/14 02:46:23;;;;;;;22.57;16.93;;;9.80;99.90;;;;;;5070916;28;20653;-77
2021/12/14 02:48:55;;;;;;;21.37;16.53;;;9.80;99.90;;;;;;5068595;28;20717;-81
2021/12/14 02:51:33;;;;;;;19.27;15.33;;;9.80;99.90;;;;;;5073983;28;20933;-83
2021/12/14 02:54:14;;;;;;;20.97;16.63;;;9.80;99.90;;;;;;5073436;28;21120;-81
2021/12/14 02:56:41;;;;;;;21.63;17.47;;;9.80;99.90;;;;;;5077104;28;20757;-80
2021/12/14 02:59:12;;;;;;;20.90;16.80;;;9.80;99.90;;;;;;5058067;28;20942;-81
2021/12/14 03:01:43;;;;;;;21.30;16.40;;;9.80;99.90;;;;;;5058463;28;20664;-82
2021/12/14 03:04:10;;;;;;;20.67;16.10;;;9.70;99.90;;;;;;5075694;28;20606;-79
2021/12/14 03:06:45;;;;;;;19.37;15.13;;;9.70;99.90;;;;;;5056537;28;20632;-81
2021/12/14 03:09:31;;;;;;;19.40;15.83;;;9.80;99.90;;;;;;5069546;28;20625;-80
2021/12/14 03:11:57;;;;;;;16.70;14.83;;;9.80;99.90;;;;;;5055010;28;20605;-79
2021/12/14 03:14:26;;;;;;;18.17;15.70;;;9.80;99.90;;;;;;5075628;28;20701;-81
2021/12/14 03:16:54;;;;;;;19.73;16.30;;;9.80;99.90;;;;;;5074382;28;20792;-82
2021/12/14 03:19:20;;;;;;;19.17;16.77;;;9.80;99.90;;;;;;5075614;28;20703;-80
2021/12/14 03:21:46;;;;;;;21.50;16.70;;;9.80;99.90;;;;;;5055283;28;20614;-76
2021/12/14 03:24:19;;;;;;;19.80;16.13;;;9.80;99.90;;;;;;5055321;28;20196;-80
2021/12/14 03:26:48;;;;;;;19.73;16.17;;;9.90;99.90;;;;;;5055043;28;20705;-79
2021/12/14 03:29:34;;;;;;;19.43;15.90;;;9.80;99.90;;;;;;5074919;28;21259;-82
2021/12/14 03:32:00;;;;;;;21.70;16.60;;;9.80;99.90;;;;;;5072918;28;20616;-79
2021/12/14 03:34:30;;;;;;;18.80;16.30;;;9.80;99.90;;;;;;5074877;28;20685;-79
2021/12/14 03:37:06;;;;;;;19.20;16.33;;;9.80;99.90;;;;;;5072239;28;20226;-80
2021/12/14 03:39:45;;;;;;;17.47;15.37;;;9.80;99.90;;;;;;5073397;28;20684;-84
2021/12/14 03:42:21;;;;;;;18.47;15.70;;;9.80;99.90;;;;;;5075441;28;20680;-80
2021/12/14 03:44:56;;;;;;;21.93;15.70;;;9.80;99.90;;;;;;5073582;28;20738;-80
2021/12/14 03:47:33;;;;;;;19.60;16.10;;;9.80;99.90;;;;;;5072717;28;20621;-80
2021/12/14 03:50:33;;;;;;;18.37;15.60;;;9.80;99.90;;;;;;5052799;28;20644;-78
2021/12/14 03:52:58;;;;;;;19.97;15.60;;;9.80;99.90;;;;;;5075628;28;20694;-81
2021/12/14 03:55:31;;;;;;;18.50;16.07;;;9.80;99.90;;;;;;5078459;28;20621;-82
2021/12/14 03:58:04;;;;;;;19.67;16.47;;;9.80;99.90;;;;;;5068958;28;20393;-80
2021/12/14 04:00:41;;;;;;;19.03;16.83;;;9.80;99.90;;;;;;5079676;28;20709;-80
2021/12/14 04:03:11;;;;;;;19.13;16.10;;;9.80;99.90;;;;;;5079859;28;20637;-78
2021/12/14 04:05:42;;;;;;;20.10;15.40;;;9.80;99.90;;;;;;5058950;28;20617;-78
2021/12/14 04:08:09;;;;;;;21.40;16.87;;;9.70;99.90;;;;;;5033628;28;20642;-78
2021/12/14 04:10:38;;;;;;;22.43;17.00;;;9.70;99.90;;;;;;5063236;28;21060;-79
2021/12/14 04:13:05;;;;;;;18.30;15.70;;;9.70;99.90;;;;;;5037584;28;20649;-81
2021/12/14 04:15:34;;;;;;;18.50;15.37;;;9.70;99.90;;;;;;5045338;28;20725;-79
2021/12/14 04:18:00;;;;;;;20.57;15.83;;;9.70;99.90;;;;;;5061943;28;21285;-80
2021/12/14 04:20:33;;;;;;;18.20;15.50;;;9.70;99.90;;;;;;5037367;28;20654;-81
2021/12/14 04:23:01;;;;;;;18.50;15.70;;;9.70;99.90;;;;;;5052538;28;20710;-81
2021/12/14 04:25:31;;;;;;;18.00;15.53;;;9.70;99.90;;;;;;5056187;28;20709;-82
2021/12/14 04:27:58;;;;;;;18.63;15.33;;;9.80;99.90;;;;;;5074049;28;20642;-78
2021/12/14 04:30:25;;;;;;;18.57;16.13;;;9.80;99.90;;;;;;5075148;28;20693;-79
2021/12/14 04:33:02;;;;;;;19.33;16.30;;;9.90;99.90;;;;;;5076999;28;20613;-79
2021/12/14 04:35:33;;;;;;;17.87;15.40;;;9.90;99.90;;;;;;5059412;28;20701;-82
2021/12/14 04:38:06;;;;;;;19.40;16.57;;;9.80;99.90;;;;;;5037162;28;21037;-83
2021/12/14 04:54:48;;;;;;;17.43;15.23;;;9.70;99.90;;;;;;5046833;28;20605;-80
2021/12/14 04:57:25;;;;;;;17.33;15.30;;;9.70;99.90;;;;;;5027377;28;20638;-79
2021/12/14 04:59:56;;;;;;;17.20;14.40;;;9.70;99.90;;;;;;5051952;28;20673;-82
2021/12/14 05:02:31;;;;;;;20.40;14.80;;;9.70;99.90;;;;;;5039272;28;20718;-80
2021/12/14 05:05:00;;;;;;;15.73;14.10;;;9.70;99.90;;;;;;5042576;28;20653;-77
2021/12/14 05:07:48;;;;;;;21.00;14.97;;;9.70;99.90;;;;;;5055219;28;20658;-80
2021/12/14 05:10:20;;;;;;;15.87;14.17;;;9.70;99.90;;;;;;5060308;28;20622;-78
2021/12/14 05:12:46;;;;;;;17.80;14.27;;;9.70;99.90;;;;;;5060777;28;20667;-78
2021/12/14 05:15:16;;;;;;;17.50;13.90;;;9.70;99.90;;;;;;5039933;28;20638;-80
2021/12/14 05:17:44;;;;;;;15.17;13.53;;;9.70;99.90;;;;;;5069832;28;20630;-81
2021/12/14 05:20:13;;;;;;;16.17;14.20;;;9.70;99.90;;;;;;5076602;28;20657;-82
2021/12/14 05:22:43;;;;;;;17.23;14.60;;;9.70;99.90;;;;;;5079630;28;20677;-77
2021/12/14 05:25:30;;;;;;;16.40;14.63;;;9.70;99.90;;;;;;5069893;28;20699;-80
2021/12/14 05:28:00;;;;;;;15.43;13.80;;;9.70;99.90;;;;;;5072752;28;20633;-80
2021/12/14 05:30:30;;;;;;;15.33;13.73;;;9.70;99.90;;;;;;5072576;28;20594;-82
2021/12/14 05:33:09;;;;;;;15.63;13.90;;;9.70;99.90;;;;;;5081111;28;20693;-80
2021/12/14 05:35:40;;;;;;;16.17;13.33;;;9.70;99.90;;;;;;5079267;28;20622;-80
2021/12/14 05:38:40;;;;;;;17.33;13.17;;;9.60;99.90;;;;;;5055604;28;20641;-82
2021/12/14 05:43:54;;;;;;;13.70;11.93;;;9.70;99.90;;;;;;5064992;28;20708;-80
2021/12/14 05:46:22;;;;;;;15.23;12.77;;;9.60;99.90;;;;;;5050637;28;20643;-78
2021/12/14 05:48:47;;;;;;;16.33;12.93;;;9.60;99.90;;;;;;5065371;28;21721;-79
2021/12/14 05:51:13;;;;;;;17.47;14.20;;;9.60;99.90;;;;;;5064922;28;20617;-81
2021/12/14 05:53:42;;;;;;;14.70;13.10;;;9.60;99.90;;;;;;5065494;28;20666;-79
2021/12/14 05:56:20;;;;;;;14.77;13.07;;;9.70;99.90;;;;;;5066474;28;20215;-79
2021/12/14 05:58:48;;;;;;;15.93;14.03;;;9.70;99.90;;;;;;5077700;28;20645;-81
2021/12/14 06:01:18;;;;;;;13.57;12.17;;;9.70;99.90;;;;;;5059808;28;20667;-79
2021/12/14 06:04:07;;;;;;;15.90;13.87;;;9.60;99.90;;;;;;5042192;28;20618;-79
2021/12/14 06:06:40;;;;;;;14.83;13.00;;;9.60;99.90;;;;;;5053274;28;20634;-77
2021/12/14 06:09:11;;;;;;;14.90;12.63;;;9.60;99.90;;;;;;5067809;28;20711;-79
2021/12/14 06:11:38;;;;;;;14.13;12.63;;;9.60;99.90;;;;;;5046251;28;20617;-78
2021/12/14 06:14:10;;;;;;;15.13;12.87;;;9.70;99.90;;;;;;5060921;28;20617;-77
2021/12/14 06:16:36;;;;;;;14.20;12.50;;;9.60;99.90;;;;;;5045912;28;20829;-79
2021/12/14 06:19:16;;;;;;;14.87;13.13;;;9.60;99.90;;;;;;5070100;28;20754;-80
2021/12/14 06:21:42;;;;;;;15.50;13.07;;;9.60;99.90;;;;;;5069580;28;20936;-78
2021/12/14 06:24:10;;;;;;;14.87;13.10;;;9.60;99.90;;;;;;5070046;28;20640;-78
2021/12/14 06:26:50;;;;;;;14.23;12.60;;;9.50;99.90;;;;;;5057834;28;21399;-79
2021/12/14 06:29:20;;;;;;;13.07;11.77;;;9.50;99.90;;;;;;5056707;28;20779;-80
2021/12/14 06:31:47;;;;;;;15.80;12.63;;;9.60;99.90;;;;;;5033425;28;21913;-79
2021/12/14 06:34:26;;;;;;;15.10;12.07;;;9.60;99.90;;;;;;5063487;28;20989;-79
2021/12/14 06:37:03;;;;;;;16.27;12.73;;;9.60;99.90;;;;;;5056259;28;20630;-76
2021/12/14 06:39:30;;;;;;;15.63;13.57;;;9.60;99.90;;;;;;5062184;28;20664;-78
2021/12/14 06:42:06;;;;;;;15.03;12.10;;;9.60;99.90;;;;;;5065173;28;20674;-79
2021/12/14 06:44:32;;;;;;;17.33;13.80;;;9.70;99.90;;;;;;5076319;28;20647;-80
2021/12/14 06:46:58;;;;;;;17.97;14.07;;;9.50;99.90;;;;;;5048396;28;20630;-76
2021/12/14 06:49:24;;;;;;;17.03;14.10;;;9.50;99.90;;;;;;5058955;28;20222;-77
2021/12/14 06:51:55;;;;;;;18.03;13.60;;;9.50;99.90;;;;;;5056028;28;20616;-83
2021/12/14 06:54:23;;;;;;;18.20;13.60;;;9.40;99.90;;;;;;5045439;28;20631;-78
2021/12/14 06:56:57;;;;;;;19.40;13.90;;;9.40;99.90;;;;;;5077203;28;20633;-78
2021/12/14 06:59:23;;;;;;;17.20;14.37;;;9.50;99.90;;;;;;5065475;28;20664;-80
2021/12/14 07:01:51;;;;;;;18.33;14.70;;;9.50;99.90;;;;;;5070751;28;20652;-80
2021/12/14 07:04:40;;;;;;;18.33;13.90;;;9.50;99.90;;;;;;5056236;28;20721;-78
2021/12/14 07:07:09;;;;;;;17.40;13.93;;;9.50;99.90;;;;;;5041836;28;20634;-82
2021/12/14 07:09:38;;;;;;;19.23;14.60;;;9.50;99.90;;;;;;5066663;28;20637;-81
2021/12/14 07:12:11;;;;;;;17.87;14.20;;;9.50;99.90;;;;;;5072256;28;21007;-79
2021/12/14 07:14:44;;;;;;;15.90;13.70;;;9.40;99.90;;;;;;5061613;28;20698;-78
2021/12/14 07:17:20;;;;;;;20.10;14.90;;;9.40;99.90;;;;;;5053780;28;20669;-78
2021/12/14 07:19:55;;;;;;;19.60;13.03;;;9.40;99.90;;;;;;5067883;28;20652;-80
2021/12/14 07:22:33;;;;;;;18.10;14.73;;;9.40;99.90;;;;;;5068709;28;20612;-77
2021/12/14 07:25:21;;;;;;;17.60;13.53;;;9.40;99.90;;;;;;5064951;28;20634;-76
2021/12/14 07:27:56;;;;;;;19.53;15.00;;;9.50;99.90;;;;;;5057722;28;20736;-77
2021/12/14 07:30:24;;;;;;;18.33;13.43;;;9.50;99.90;;;;;;5068185;28;20619;-79
2021/12/14 07:32:56;;;;;;;19.87;16.30;;;9.50;99.90;;;;;;5071758;28;20637;-80
2021/12/14 07:35:27;;;;;;;19.27;14.93;;;9.50;99.90;;;;;;5065661;28;20654;-77
2021/12/14 07:37:59;;;;;;;20.30;15.00;;;9.50;99.90;;;;;;5070945;28;20695;-80
2021/12/14 07:40:36;;;;;;;17.53;13.70;;;9.40;99.90;;;;;;5069488;28;20640;-78
2021/12/14 07:43:18;;;;;;;20.47;15.47;;;9.40;99.90;;;;;;5073828;28;20636;-79
2021/12/14 07:45:47;;;;;;;19.50;14.30;;;9.40;99.90;;;;;;5069332;28;20601;-79
2021/12/14 07:48:13;;;;;;;20.00;14.97;;;9.50;99.90;;;;;;5054726;28;20621;-80
2021/12/14 07:50:45;;;;;;;19.10;15.50;;;9.50;99.90;;;;;;5078871;28;20689;-78
2021/12/14 07:53:11;;;;;;;19.33;15.60;;;9.50;99.90;;;;;;5057514;28;20653;-79
2021/12/14 07:55:40;;;;;;;20.10;15.33;;;9.50;99.90;;;;;;5071858;28;20954;-80
2021/12/14 07:58:06;;;;;;;20.43;14.93;;;9.40;99.90;;;;;;5062703;28;20316;-78
2021/12/14 08:00:35;;;;;;;20.63;15.47;;;9.50;99.90;;;;;;5058253;28;20650;-77
2021/12/14 08:03:02;;;;;;;21.60;15.90;;;9.40;99.90;;;;;;5069758;28;20186;-80
2021/12/14 08:05:39;;;;;;;24.90;16.63;;;9.40;99.90;;;;;;5061708;28;22433;-79
2021/12/14 08:08:31;;;;;;;21.97;16.17;;;9.40;99.90;;;;;;5071772;28;20771;-78
2021/12/14 08:11:28;;;;;;;22.80;16.80;;;9.40;99.90;;;;;;5076136;28;20653;-77
2021/12/14 08:13:58;;;;;;;21.27;16.10;;;9.40;99.90;;;;;;5064259;28;20600;-77
2021/12/14 08:16:23;;;;;;;25.30;17.77;;;9.30;99.90;;;;;;5064821;28;20701;-79
2021/12/14 08:18:51;;;;;;;22.17;16.30;;;9.40;99.90;;;;;;5044345;28;20772;-77
2021/12/14 08:21:24;;;;;;;26.10;17.63;;;9.40;99.90;;;;;;5060342;28;20298;-78
2021/12/14 08:23:54;;;;;;;24.17;17.77;;;9.40;99.90;;;;;;5084898;28;20609;-78
2021/12/14 08:26:28;;;;;;;22.90;17.10;;;9.40;99.90;;;;;;5062452;28;20722;-81
2021/12/14 08:29:06;;;;;;;24.37;17.20;;;9.40;99.90;;;;;;5081715;28;21195;-80
2021/12/14 08:31:36;;;;;;;25.40;18.10;;;9.40;99.90;;;;;;5088489;28;20626;-78
2021/12/14 08:34:08;;;;;;;24.50;16.80;;;9.50;99.90;;;;;;5092848;28;20630;-80
2021/12/14 08:36:40;;;;;;;24.47;17.20;;;9.50;99.90;;;;;;5079097;28;20761;-80
2021/12/14 08:39:13;;;;;;;25.20;18.30;;;9.60;99.90;;;;;;5065739;28;20663;-80
2021/12/14 08:41:48;;;;;;;22.00;16.30;;;9.40;99.90;;;;;;5072978;28;21327;-78
2021/12/14 08:44:20;;;;;;;22.50;16.83;;;9.40;99.90;;;;;;5077348;28;20578;-78
2021/12/14 08:46:49;;;;;;;26.03;18.47;;;9.40;99.90;;;;;;5045887;28;20745;-79
2021/12/14 08:49:17;;;;;;;26.43;18.33;;;9.40;99.90;;;;;;5047103;28;21029;-79
2021/12/14 08:51:45;;;;;;;24.67;18.60;;;9.40;99.90;;;;;;5058367;28;20647;-78
2021/12/14 08:54:16;;;;;;;25.80;17.60;;;9.40;99.90;;;;;;5063821;28;21153;-81
2021/12/14 08:56:57;;;;;;;27.70;18.30;;;9.40;99.90;;;;;;5053432;28;20627;-80
2021/12/14 08:59:23;;;;;;;27.07;19.13;;;9.40;99.90;;;;;;5034263;28;20646;-80
2021/12/14 09:01:50;;;;;;;26.73;18.37;;;9.30;99.90;;;;;;5043079;28;21123;-78
2021/12/14 09:04:30;;;;;;;25.73;17.60;;;9.30;99.90;;;;;;5064429;28;20625;-80
2021/12/14 09:07:04;;;;;;;26.80;18.60;;;9.40;99.90;;;;;;5058727;28;20638;-80
2021/12/14 09:09:29;;;;;;;28.77;18.60;;;9.40;99.90;;;;;;5073780;28;20681;-79
2021/12/14 09:12:09;;;;;;;30.47;20.60;;;9.40;99.90;;;;;;5060507;28;20610;-77
2021/12/14 09:14:36;;;;;;;25.10;17.83;;;9.40;99.90;;;;;;5064493;28;20187;-78
2021/12/14 09:17:06;;;;;;;27.83;18.30;;;9.40;99.90;;;;;;5066705;28;20632;-79
2021/12/14 09:19:38;;;;;;;26.57;18.80;;;9.40;99.90;;;;;;5078257;28;20645;-80
2021/12/14 09:22:10;;;;;;;25.60;18.13;;;9.40;99.90;;;;;;5072170;28;20578;-80
2021/12/14 09:24:38;;;;;;;26.83;18.40;;;9.40;99.90;;;;;;5067687;28;20733;-79
2021/12/14 09:27:09;;;;;;;26.83;18.03;;;9.40;99.90;;;;;;5061453;28;20636;-78
2021/12/14 09:29:35;;;;;;;27.70;17.97;;;9.40;99.90;;;;;;5041553;28;20633;-80
2021/12/14 09:32:06;;;;;;;26.47;19.17;;;9.40;99.90;;;;;;5057561;28;20655;-81
2021/12/14 09:34:34;;;;;;;26.00;18.80;;;9.40;99.90;;;;;;5077312;28;20617;-81
2021/12/14 09:37:01;;;;;;;28.53;18.90;;;9.40;99.90;;;;;;5078441;28;20618;-79
2021/12/14 09:39:31;;;;;;;31.30;20.30;;;9.40;99.90;;;;;;5072542;28;20645;-77
2021/12/14 09:42:00;;;;;;;28.37;19.40;;;9.50;99.90;;;;;;5074112;28;21228;-80
2021/12/14 09:44:28;;;;;;;31.33;19.70;;;9.50;99.90;;;;;;5070124;28;20632;-79
2021/12/14 09:46:57;;;;;;;29.40;19.90;;;9.50;99.90;;;;;;5065800;28;20687;-80
2021/12/14 09:49:24;;;;;;;27.87;19.70;;;9.50;99.90;;;;;;5067907;28;20685;-81
2021/12/14 09:51:53;;;;;;;29.80;18.83;;;9.50;99.90;;;;;;5064338;28;21183;-78
2021/12/14 09:54:22;;;;;;;28.17;19.90;;;9.50;99.90;;;;;;5067014;28;20603;-82
2021/12/14 09:56:56;;;;;;;30.00;19.83;;;9.50;99.90;;;;;;5065522;28;20626;-79
2021/12/14 09:59:22;;;;;;;31.57;19.97;;;9.50;99.90;;;;;;5073809;28;21232;-80
2021/12/14 10:01:53;;;;;;;29.67;19.87;;;9.50;99.90;;;;;;5066880;28;20651;-80
2021/12/14 10:04:27;;;;;;;31.23;21.27;;;9.50;99.90;;;;;;5048530;28;20184;-78
2021/12/14 10:06:53;;;;;;;31.60;21.17;;;9.90;99.90;;;;;;5058038;28;20661;-78
2021/12/14 10:09:25;;;;;;;31.33;19.90;;;9.50;99.90;;;;;;5035725;28;20699;-78
2021/12/14 10:12:14;;;;;;;28.67;19.47;;;9.60;99.90;;;;;;5062228;28;20755;-80
2021/12/14 10:14:41;;;;;;;34.33;20.10;;;9.60;99.90;;;;;;5051828;28;20691;-77
2021/12/14 10:17:11;;;;;;;29.40;20.27;;;9.60;99.90;;;;;;5046707;28;20655;-80
2021/12/14 10:19:38;;;;;;;27.17;18.43;;;9.60;99.90;;;;;;5062088;28;20653;-78
2021/12/14 10:22:09;;;;;;;31.13;20.87;;;9.60;99.90;;;;;;5050231;28;20632;-79
2021/12/14 10:24:35;;;;;;;32.17;22.00;;;9.70;99.90;;;;;;5072313;28;20629;-79
2021/12/14 10:27:06;;;;;;;30.33;20.70;;;9.70;99.90;;;;;;5077138;28;20625;-81
2021/12/14 10:29:34;;;;;;;28.73;20.20;;;9.70;99.90;;;;;;5063693;28;20634;-79
2021/12/14 10:32:09;;;;;;;29.03;21.57;;;9.70;99.90;;;;;;5082424;28;20598;-80
2021/12/14 10:34:43;;;;;;;31.43;19.90;;;9.80;99.90;;;;;;5078727;28;20597;-81
2021/12/14 10:37:23;;;;;;;30.53;21.83;;;9.70;99.90;;;;;;5082225;28;20965;-79
2021/12/14 10:45:25;;;;;;;29.00;19.50;;;9.70;99.90;;;;;;5076386;28;20609;-79
2021/12/14 10:47:51;;;;;;;30.67;20.63;;;9.60;99.90;;;;;;5069211;28;20947;-80
2021/12/14 10:50:21;;;;;;;32.80;19.97;;;9.70;99.90;;;;;;5059815;28;20605;-80
2021/12/14 10:52:47;;;;;;;29.37;19.80;;;9.60;99.90;;;;;;5045753;28;20183;-80
2021/12/14 10:55:42;;;;;;;27.73;19.17;;;9.60;99.90;;;;;;5070977;28;20613;-79
2021/12/14 10:58:09;;;;;;;29.50;18.60;;;9.70;99.90;;;;;;5044821;28;20699;-79
2021/12/14 11:00:46;;;;;;;26.43;17.90;;;9.70;99.90;;;;;;5081658;28;20718;-80
2021/12/14 11:03:17;;;;;;;25.30;17.87;;;9.70;99.90;;;;;;5084773;28;20582;-80
2021/12/14 11:05:46;;;;;;;26.40;18.23;;;9.80;99.90;;;;;;5079500;28;20708;-77
2021/12/14 11:08:34;;;;;;;30.07;19.60;;;9.70;99.90;;;;;;5076847;28;20685;-79
2021/12/14 11:11:02;;;;;;;25.37;18.70;;;9.70;99.90;;;;;;5078591;28;20633;-79
2021/12/14 11:13:41;;;;;;;29.63;19.33;;;9.70;99.90;;;;;;5062991;28;20619;-78
2021/12/14 11:16:14;;;;;;;24.90;17.40;;;9.70;99.90;;;;;;5066653;28;20656;-78
2021/12/14 11:18:43;;;;;;;29.90;19.90;;;9.80;99.90;;;;;;5060243;28;20676;-80
2021/12/14 11:21:13;;;;;;;28.40;18.13;;;9.70;99.90;;;;;;5069108;28;20668;-80
2021/12/14 11:23:45;;;;;;;25.50;18.57;;;9.70;99.90;;;;;;5055685;28;20640;-82
2021/12/14 11:26:22;;;;;;;28.53;18.20;;;9.70;99.90;;;;;;5068201;28;20679;-81
2021/12/14 11:28:56;;;;;;;28.20;19.90;;;9.70;99.90;;;;;;5072764;28;20649;-84
2021/12/14 11:31:47;;;;;;;25.20;17.47;;;9.70;99.90;;;;;;5047513;28;20680;-81
2021/12/14 11:34:29;;;;;;;27.57;18.60;;;9.70;99.90;;;;;;5065356;28;20631;-81
2021/12/14 11:37:03;;;;;;;27.23;19.10;;;9.70;99.90;;;;;;5056591;28;20744;-78
2021/12/14 11:39:41;;;;;;;26.77;18.70;;;10.00;99.90;;;;;;5040625;28;20656;-81
2021/12/14 11:42:12;;;;;;;32.60;20.20;;;9.70;99.90;;;;;;5070962;28;21303;-81
2021/12/14 11:44:45;;;;;;;29.13;19.43;;;9.80;99.90;;;;;;5077242;28;20632;-79
2021/12/14 11:50:12;;;;;;;28.97;18.97;;;9.80;99.90;;;;;;5075469;28;20651;-80
2021/12/14 11:52:54;;;;;;;29.97;19.93;;;9.80;99.90;;;;;;5069623;28;20617;-78
2021/12/14 11:55:19;;;;;;;31.50;19.10;;;9.80;99.90;;;;;;5074612;28;20632;-80
2021/12/14 11:57:51;;;;;;;29.07;18.80;;;9.80;99.90;;;;;;5057151;28;21446;-79
2021/12/14 12:00:21;;;;;;;26.93;18.20;;;9.80;99.90;;;;;;5070336;28;20198;-82
2021/12/14 12:02:48;;;;;;;28.50;19.30;;;9.80;99.90;;;;;;5074182;28;20617;-80
2021/12/14 12:05:20;;;;;;;30.07;19.03;;;9.80;99.90;;;;;;5074798;28;20604;-83
2021/12/14 12:10:43;;;;;;;29.27;19.20;;;9.80;99.90;;;;;;5077194;28;20604;-81
2021/12/14 12:13:09;;;;;;;27.63;18.60;;;9.80;99.90;;;;;;5053846;28;20621;-83
2021/12/14 12:15:41;;;;;;;27.73;18.70;;;9.80;99.90;;;;;;5075334;28;20637;-82
2021/12/14 12:18:07;;;;;;;26.67;17.40;;;9.80;99.90;;;;;;5076968;28;20251;-78
2021/12/14 12:20:41;;;;;;;25.83;17.80;;;9.80;99.90;;;;;;5062543;28;20657;-81
2021/12/14 12:23:10;;;;;;;27.93;18.10;;;10.10;99.90;;;;;;5059533;28;20617;-83
2021/12/14 12:25:54;;;;;;;24.87;17.13;;;9.80;99.90;;;;;;5076776;28;20594;-80
2021/12/14 12:28:22;;;;;;;28.03;18.03;;;9.80;99.90;;;;;;5075133;28;20653;-79
2021/12/14 12:31:06;;;;;;;28.77;18.37;;;10.00;99.90;;;;;;5072579;28;20686;-81
2021/12/14 12:33:40;;;;;;;26.87;17.70;;;9.80;99.90;;;;;;5081397;28;20598;-80
2021/12/14 12:36:20;;;;;;;26.33;17.60;;;9.90;99.90;;;;;;5068109;28;20624;-80
2021/12/14 12:38:53;;;;;;;24.90;16.27;;;9.90;99.90;;;;;;5072002;28;20645;-77
2021/12/14 12:41:36;;;;;;;24.47;16.07;;;9.90;99.90;;;;;;5054118;28;20683;-82
2021/12/14 12:44:10;;;;;;;24.57;16.07;;;9.80;99.90;;;;;;5073886;28;20579;-81
2021/12/14 12:46:40;;;;;;;23.87;16.73;;;9.80;99.90;;;;;;5058458;28;20654;-76
2021/12/14 12:49:20;;;;;;;22.10;15.80;;;9.90;99.90;;;;;;5079376;28;20636;-83
2021/12/14 12:52:09;;;;;;;21.77;14.43;;;9.90;99.90;;;;;;5051655;28;20655;-80
2021/12/14 12:54:48;;;;;;;23.57;15.50;;;9.90;99.90;;;;;;5072259;28;20602;-82
2021/12/14 12:58:10;;;;;;;21.20;14.97;;;9.90;99.90;;;;;;5078805;28;20687;-79
2021/12/14 13:00:45;;;;;;;24.33;16.20;;;9.90;99.90;;;;;;4993750;28;20958;-82
2021/12/14 13:03:15;;;;;;;21.63;14.53;;;9.90;99.90;;;;;;5051398;28;20636;-80
2021/12/14 13:05:49;;;;;;;19.57;14.43;;;9.90;99.90;;;;;;5069787;28;20602;-79
2021/12/14 13:08:26;;;;;;;18.70;14.17;;;9.90;99.90;;;;;;5051858;28;20676;-77
2021/12/14 13:11:07;;;;;;;21.90;15.77;;;10.00;99.90;;;;;;5074487;28;20629;-78
2021/12/14 13:13:41;;;;;;;18.97;14.47;;;10.00;99.90;;;;;;5079433;28;20645;-79
2021/12/14 13:16:17;;;;;;;18.40;14.40;;;10.00;99.90;;;;;;5071493;28;20636;-79
2021/12/14 13:18:46;;;;;;;20.70;15.13;;;10.00;99.90;;;;;;5057850;28;20656;-80
2021/12/14 13:21:18;;;;;;;22.10;15.30;;;10.00;99.90;;;;;;5059866;28;20714;-80
2021/12/14 13:24:08;;;;;;;18.10;13.83;;;10.00;99.90;;;;;;5079190;28;20830;-79
2021/12/14 13:27:07;;;;;;;22.00;13.50;;;10.00;99.90;;;;;;5076105;28;20644;-85
2021/12/14 13:29:38;;;;;;;20.73;14.53;;;10.00;99.90;;;;;;5073328;28;20645;-79
2021/12/14 13:32:08;;;;;;;20.33;14.83;;;10.10;99.90;;;;;;5076502;28;20602;-80
2021/12/14 13:34:43;;;;;;;19.80;13.20;;;10.00;99.90;;;;;;5055435;28;20716;-82
2021/12/14 13:37:11;;;;;;;23.33;13.10;;;10.00;99.90;;;;;;5079282;28;20640;-79
2021/12/14 13:39:41;;;;;;;19.60;13.43;;;10.00;99.90;;;;;;5074926;28;20689;-78
2021/12/14 13:42:12;;;;;;;19.07;12.87;;;10.20;99.90;;;;;;5069036;28;20613;-80
2021/12/14 13:45:00;;;;;;;16.43;11.90;;;10.10;99.90;;;;;;5073853;28;21060;-80